Time;durP1;ratioP1;P1;durP2;ratioP2;P2;SDS_P1;SDS_P2;PMS_P1;PMS_P2;Temp;Humidity;BMP_temperature;BMP_pressure;BME280_temperature;BME280_humidity;BME280_pressure;Samples;Min_cycle;Max_cycle;Signal;HPM_P1;HPM_P2
2024/01/23 00:00:11;;;;;;;22.10;4.67;;;9.40;99.90;;;;;;5013106;28;20261;-82
2024/01/23 00:02:37;;;;;;;17.87;3.60;;;9.40;99.90;;;;;;5007905;28;20210;-83
2024/01/23 00:05:03;;;;;;;17.00;4.53;;;9.40;99.90;;;;;;5010055;28;21047;-82
2024/01/23 00:07:28;;;;;;;19.80;5.23;;;9.40;99.90;;;;;;5009226;28;20482;-81
2024/01/23 00:09:54;;;;;;;11.27;3.20;;;9.40;99.90;;;;;;5010278;28;20488;-83
2024/01/23 00:12:20;;;;;;;18.77;4.53;;;9.30;1.00;;;;;;5007401;28;20227;-83
2024/01/23 00:14:45;;;;;;;36.37;6.80;;;9.30;1.00;;;;;;5010993;28;20175;-83
2024/01/23 00:17:11;;;;;;;22.27;4.53;;;9.30;1.00;;;;;;5003338;28;20187;-83
2024/01/23 00:19:36;;;;;;;22.57;4.33;;;9.30;1.00;;;;;;5004585;28;20194;-82
2024/01/23 00:22:02;;;;;;;29.33;6.03;;;9.30;99.90;;;;;;5008745;28;20215;-83
2024/01/23 00:24:27;;;;;;;17.87;4.30;;;9.30;99.90;;;;;;5011713;28;20781;-83
2024/01/23 00:26:53;;;;;;;15.53;4.00;;;9.30;99.90;;;;;;5008949;28;20187;-82
2024/01/23 00:29:18;;;;;;;26.97;4.43;;;9.30;99.90;;;;;;5003925;28;20202;-82
2024/01/23 00:31:44;;;;;;;19.57;4.50;;;9.30;99.90;;;;;;5005792;28;20203;-82
2024/01/23 00:34:11;;;;;;;25.17;4.37;;;9.30;99.90;;;;;;5006744;28;20270;-83
2024/01/23 00:36:36;;;;;;;17.33;4.83;;;9.30;99.90;;;;;;5010003;28;20187;-83
2024/01/23 00:39:02;;;;;;;18.10;4.60;;;9.30;1.00;;;;;;5006218;28;20450;-82
2024/01/23 00:41:28;;;;;;;20.90;4.60;;;9.30;1.00;;;;;;5002349;28;20188;-82
2024/01/23 00:43:53;;;;;;;20.17;5.00;;;9.30;1.00;;;;;;5003522;28;20482;-82
2024/01/23 00:46:19;;;;;;;28.70;4.00;;;9.30;1.00;;;;;;5003512;28;20200;-82
2024/01/23 00:48:44;;;;;;;21.60;4.00;;;9.30;1.00;;;;;;5002069;28;20253;-81
2024/01/23 00:51:11;;;;;;;20.90;5.03;;;9.30;1.00;;;;;;4999220;28;20186;-82
2024/01/23 00:53:37;;;;;;;20.30;4.33;;;9.30;99.90;;;;;;5003104;28;20207;-82
2024/01/23 00:56:02;;;;;;;20.73;4.20;;;9.30;99.90;;;;;;5003983;28;20464;-82
2024/01/23 00:58:28;;;;;;;32.87;6.70;;;9.30;99.90;;;;;;5000482;28;20503;-80
2024/01/23 01:00:53;;;;;;;12.13;3.70;;;9.30;41.50;;;;;;5006116;28;20183;-82
2024/01/23 01:03:19;;;;;;;21.17;4.53;;;9.30;1.00;;;;;;4999818;28;20211;-81
2024/01/23 01:05:45;;;;;;;16.63;3.67;;;9.30;1.00;;;;;;4999331;28;20187;-81
2024/01/23 01:08:12;;;;;;;20.07;3.73;;;9.30;1.00;;;;;;5000823;28;20278;-81
2024/01/23 01:10:37;;;;;;;12.70;3.77;;;9.30;99.90;;;;;;5004011;28;20474;-82
2024/01/23 01:13:03;;;;;;;15.20;4.93;;;9.30;99.90;;;;;;5016551;28;20504;-82
2024/01/23 01:15:29;;;;;;;17.07;4.27;;;9.30;99.90;;;;;;5004175;28;20188;-81
2024/01/23 01:17:54;;;;;;;18.20;4.27;;;9.30;99.90;;;;;;5002064;28;20557;-82
2024/01/23 01:20:20;;;;;;;27.03;4.40;;;9.30;99.90;;;;;;5003538;28;20206;-83
2024/01/23 01:22:45;;;;;;;22.93;4.50;;;9.30;1.00;;;;;;4997849;28;20211;-81
2024/01/23 01:25:11;;;;;;;13.13;3.30;;;9.40;1.00;;;;;;4998547;28;20233;-81
2024/01/23 01:27:36;;;;;;;13.43;3.10;;;9.40;1.00;;;;;;5003433;28;20183;-82
2024/01/23 01:30:06;;;;;;;24.67;3.20;;;9.40;1.00;;;;;;5004736;28;20711;-81
2024/01/23 01:32:31;;;;;;;18.03;4.73;;;9.40;1.00;;;;;;5007651;28;20215;-81
2024/01/23 01:34:57;;;;;;;11.47;3.50;;;9.40;1.00;;;;;;5006164;28;20873;-81
2024/01/23 01:37:23;;;;;;;19.17;4.60;;;9.40;1.00;;;;;;5005265;28;20263;-81
2024/01/23 01:39:48;;;;;;;16.63;4.93;;;9.40;1.00;;;;;;5008552;28;20525;-81
2024/01/23 01:42:14;;;;;;;12.87;4.03;;;9.40;34.70;;;;;;5005430;28;20473;-81
2024/01/23 01:44:39;;;;;;;20.40;5.10;;;9.30;25.00;;;;;;5007707;28;20186;-80
2024/01/23 01:47:05;;;;;;;14.60;3.53;;;9.30;99.90;;;;;;5002023;28;20184;-82
2024/01/23 01:49:31;;;;;;;19.23;3.57;;;9.30;99.90;;;;;;5010175;28;20214;-83
2024/01/23 01:51:57;;;;;;;16.27;3.73;;;9.30;1.00;;;;;;5021334;28;20203;-83
2024/01/23 01:54:23;;;;;;;23.33;4.30;;;9.30;1.00;;;;;;5010714;28;20192;-82
2024/01/23 01:56:51;;;;;;;8.83;2.70;;;9.30;1.00;;;;;;5010632;28;20524;-82
2024/01/23 01:59:18;;;;;;;15.30;3.17;;;9.20;1.00;;;;;;5008068;28;20505;-82
2024/01/23 02:01:44;;;;;;;14.53;3.60;;;9.20;99.90;;;;;;5006229;28;20532;-82
2024/01/23 02:04:10;;;;;;;19.10;4.53;;;9.20;99.90;;;;;;5007872;28;20464;-82
2024/01/23 02:06:36;;;;;;;18.57;4.20;;;9.20;99.90;;;;;;5007354;28;20497;-81
2024/01/23 02:09:02;;;;;;;16.10;3.50;;;9.20;99.90;;;;;;5011784;28;20199;-82
2024/01/23 02:11:28;;;;;;;13.17;3.00;;;9.20;99.90;;;;;;5008893;28;20210;-81
2024/01/23 02:13:53;;;;;;;7.10;2.97;;;9.20;99.90;;;;;;5008705;28;20481;-82
2024/01/23 02:16:19;;;;;;;22.10;4.50;;;9.20;99.90;;;;;;5011672;28;20206;-81
2024/01/23 02:18:45;;;;;;;12.67;3.53;;;9.10;99.90;;;;;;5010530;28;20194;-82
2024/01/23 02:21:12;;;;;;;16.80;5.33;;;9.20;99.90;;;;;;5012596;28;20246;-83
2024/01/23 02:23:37;;;;;;;14.63;2.87;;;9.10;99.90;;;;;;5011021;28;20206;-80
2024/01/23 02:26:03;;;;;;;16.73;3.70;;;9.10;99.90;;;;;;5012118;28;20442;-82
2024/01/23 02:28:28;;;;;;;22.27;3.57;;;9.10;99.90;;;;;;5010680;28;20183;-82
2024/01/23 02:30:54;;;;;;;17.70;4.23;;;9.10;99.90;;;;;;5012673;28;20235;-82
2024/01/23 02:33:20;;;;;;;13.93;4.33;;;9.10;99.90;;;;;;5013243;28;20203;-83
2024/01/23 02:35:45;;;;;;;11.77;3.30;;;9.10;99.90;;;;;;5011889;28;20179;-82
2024/01/23 02:38:11;;;;;;;12.07;2.77;;;9.10;99.90;;;;;;5004067;28;20179;-82
2024/01/23 02:40:36;;;;;;;10.73;4.50;;;9.10;99.90;;;;;;5010831;28;20206;-81
2024/01/23 02:43:02;;;;;;;27.60;5.33;;;9.10;99.90;;;;;;5009315;28;20223;-82
2024/01/23 02:45:28;;;;;;;12.87;2.87;;;9.00;99.90;;;;;;5012617;28;20192;-81
2024/01/23 02:47:54;;;;;;;22.20;3.80;;;9.00;99.90;;;;;;5010607;28;20214;-80
2024/01/23 02:50:19;;;;;;;10.57;3.40;;;9.00;99.90;;;;;;5010149;28;20470;-81
2024/01/23 02:52:45;;;;;;;14.23;3.03;;;8.90;99.90;;;;;;5004359;28;20210;-82
2024/01/23 02:55:11;;;;;;;12.10;3.23;;;8.90;99.90;;;;;;5008801;28;20673;-81
2024/01/23 02:57:36;;;;;;;14.57;4.00;;;8.90;99.90;;;;;;5010843;28;20187;-83
2024/01/23 03:00:02;;;;;;;13.63;5.27;;;8.90;99.90;;;;;;5009687;28;20195;-82
2024/01/23 03:02:28;;;;;;;10.73;2.77;;;8.80;99.90;;;;;;5004779;28;20214;-82
2024/01/23 03:04:54;;;;;;;10.47;2.33;;;8.80;99.90;;;;;;5005803;28;20869;-82
2024/01/23 03:07:20;;;;;;;17.10;3.90;;;8.80;1.00;;;;;;5005855;28;20500;-82
2024/01/23 03:09:45;;;;;;;17.63;2.93;;;8.70;1.00;;;;;;5005017;28;20218;-81
2024/01/23 03:12:18;;;;;;;18.20;3.00;;;8.70;1.00;;;;;;5020603;28;20206;-81
2024/01/23 03:14:45;;;;;;;14.27;3.30;;;8.60;1.00;;;;;;5006520;28;20237;-83
2024/01/23 03:17:12;;;;;;;14.93;4.10;;;8.60;1.00;;;;;;5005182;28;20438;-81
2024/01/23 03:19:38;;;;;;;19.70;3.10;;;8.50;1.00;;;;;;5017202;28;20989;-82
2024/01/23 03:22:04;;;;;;;15.93;4.07;;;8.50;1.00;;;;;;5005183;28;20543;-81
2024/01/23 03:24:29;;;;;;;14.53;3.27;;;8.50;1.00;;;;;;5006328;28;20450;-81
2024/01/23 03:26:56;;;;;;;27.37;4.00;;;8.50;13.90;;;;;;5002071;28;20442;-81
2024/01/23 03:29:23;;;;;;;14.63;4.27;;;8.50;83.20;;;;;;5004460;28;20206;-81
2024/01/23 03:31:49;;;;;;;15.13;3.30;;;8.40;99.90;;;;;;5005745;28;20461;-82
2024/01/23 03:34:15;;;;;;;28.90;4.97;;;8.40;99.90;;;;;;5005686;28;20944;-82
2024/01/23 03:36:40;;;;;;;12.27;2.80;;;8.40;99.90;;;;;;5005009;28;20450;-82
2024/01/23 03:39:06;;;;;;;12.50;3.27;;;8.40;99.90;;;;;;5003845;28;20460;-81
2024/01/23 03:41:31;;;;;;;15.97;3.83;;;8.30;99.90;;;;;;5004029;28;20194;-81
2024/01/23 03:43:57;;;;;;;8.67;3.30;;;8.30;99.90;;;;;;5016025;28;20219;-82
2024/01/23 03:46:22;;;;;;;18.20;4.20;;;8.30;1.00;;;;;;5002008;28;20834;-81
2024/01/23 03:48:48;;;;;;;13.10;4.13;;;8.20;1.00;;;;;;5011560;28;20215;-82
2024/01/23 03:51:13;;;;;;;13.43;3.60;;;8.20;1.00;;;;;;5007284;28;20184;-82
2024/01/23 03:53:39;;;;;;;18.73;3.07;;;8.10;1.00;;;;;;5025270;28;20203;-82
2024/01/23 03:56:05;;;;;;;22.97;4.20;;;8.10;1.00;;;;;;5018811;28;20574;-82
2024/01/23 03:58:30;;;;;;;23.43;4.50;;;8.00;99.90;;;;;;5010806;28;20184;-82
2024/01/23 04:00:59;;;;;;;18.60;3.70;;;8.00;99.90;;;;;;5021200;28;20190;-82
2024/01/23 04:03:25;;;;;;;20.00;3.67;;;8.00;99.90;;;;;;5013495;28;20285;-83
2024/01/23 04:05:50;;;;;;;11.70;2.93;;;7.90;99.90;;;;;;5007460;28;20430;-81
2024/01/23 04:08:16;;;;;;;11.90;4.47;;;7.90;99.90;;;;;;5022152;28;20179;-83
2024/01/23 04:10:41;;;;;;;21.33;3.90;;;7.80;1.00;;;;;;5006893;28;20211;-82
2024/01/23 04:13:07;;;;;;;21.93;4.70;;;7.80;1.00;;;;;;5007264;28;20198;-82
2024/01/23 04:15:32;;;;;;;12.03;4.47;;;7.80;1.00;;;;;;5003470;28;20215;-82
2024/01/23 04:17:58;;;;;;;15.20;4.20;;;7.70;99.90;;;;;;5000574;28;20192;-81
2024/01/23 04:20:23;;;;;;;15.47;5.10;;;7.70;99.90;;;;;;5006498;28;20564;-81
2024/01/23 04:22:49;;;;;;;13.13;3.57;;;7.60;99.90;;;;;;5005608;28;20225;-80
2024/01/23 04:25:14;;;;;;;16.23;4.10;;;7.60;99.90;;;;;;5007249;28;20557;-82
2024/01/23 04:27:40;;;;;;;21.43;3.83;;;7.60;1.00;;;;;;5012280;28;20183;-82
2024/01/23 04:30:06;;;;;;;16.77;3.73;;;7.50;1.00;;;;;;5007804;28;20760;-81
2024/01/23 04:32:32;;;;;;;17.87;4.50;;;7.50;1.00;;;;;;5009240;28;20261;-81
2024/01/23 04:34:57;;;;;;;19.77;3.90;;;7.50;1.00;;;;;;5008963;28;20446;-81
2024/01/23 04:37:23;;;;;;;12.27;3.27;;;7.40;99.90;;;;;;5001315;28;20199;-81
2024/01/23 04:39:48;;;;;;;20.83;4.03;;;7.40;99.90;;;;;;5007144;28;20187;-81
2024/01/23 04:42:14;;;;;;;13.73;3.83;;;7.40;99.90;;;;;;5006187;28;20219;-82
2024/01/23 04:44:39;;;;;;;16.90;4.17;;;7.40;99.90;;;;;;5006862;28;20609;-82
2024/01/23 04:47:05;;;;;;;25.57;4.60;;;7.40;99.90;;;;;;5005958;28;20234;-81
2024/01/23 04:49:30;;;;;;;32.10;4.40;;;7.30;99.90;;;;;;5007133;28;20249;-82
2024/01/23 04:51:56;;;;;;;14.17;3.27;;;7.30;99.90;;;;;;5008843;28;20203;-82
2024/01/23 04:54:22;;;;;;;17.13;3.70;;;7.30;99.90;;;;;;5007626;28;20190;-82
2024/01/23 04:56:47;;;;;;;18.90;4.43;;;7.30;99.90;;;;;;5003896;28;20664;-82
2024/01/23 04:59:13;;;;;;;16.80;4.27;;;7.30;99.90;;;;;;5007684;28;20657;-82
2024/01/23 05:01:38;;;;;;;27.83;4.73;;;7.20;99.90;;;;;;5005587;28;20569;-81
2024/01/23 05:04:04;;;;;;;15.60;3.30;;;7.20;1.00;;;;;;5003780;28;20194;-82
2024/01/23 05:06:30;;;;;;;15.17;4.00;;;7.20;99.90;;;;;;5005570;28;20831;-82
2024/01/23 05:08:56;;;;;;;13.95;3.13;;;7.20;1.00;;;;;;5026945;28;20305;-81
2024/01/23 05:11:21;;;;;;;12.10;2.97;;;7.20;1.00;;;;;;5025962;28;20214;-81
2024/01/23 05:13:47;;;;;;;12.97;3.90;;;7.10;1.00;;;;;;5011513;28;20187;-83
2024/01/23 05:16:12;;;;;;;15.23;3.60;;;7.10;1.00;;;;;;5010533;28;20186;-82
2024/01/23 05:18:38;;;;;;;15.73;3.77;;;7.10;1.00;;;;;;5010266;28;20650;-82
2024/01/23 05:21:04;;;;;;;11.73;3.30;;;7.00;1.00;;;;;;5007851;28;20249;-82
2024/01/23 05:23:29;;;;;;;19.07;3.83;;;7.00;1.00;;;;;;5010925;28;20207;-82
2024/01/23 05:25:55;;;;;;;19.57;4.30;;;7.00;1.00;;;;;;5007506;28;20485;-82
2024/01/23 05:28:20;;;;;;;16.87;4.27;;;7.00;1.00;;;;;;5006603;28;20175;-81
2024/01/23 05:30:47;;;;;;;25.00;4.93;;;7.00;1.00;;;;;;5006669;28;20211;-81
2024/01/23 05:33:12;;;;;;;18.70;3.97;;;7.00;1.00;;;;;;5021644;28;20195;-81
2024/01/23 05:35:38;;;;;;;22.27;3.90;;;7.00;1.00;;;;;;5002413;28;20184;-81
2024/01/23 05:38:03;;;;;;;21.37;4.40;;;7.00;1.00;;;;;;5001458;28;20191;-82
2024/01/23 05:40:29;;;;;;;16.10;3.47;;;7.00;1.00;;;;;;5008517;28;20571;-82
2024/01/23 05:42:54;;;;;;;13.80;4.07;;;7.00;1.00;;;;;;5004491;28;20214;-82
2024/01/23 05:45:20;;;;;;;12.73;2.70;;;6.90;1.00;;;;;;5009260;28;20180;-82
2024/01/23 05:47:45;;;;;;;16.03;3.37;;;7.00;99.90;;;;;;5005647;28;20307;-82
2024/01/23 05:50:11;;;;;;;14.07;3.03;;;6.90;99.90;;;;;;5009293;28;20212;-82
2024/01/23 05:52:36;;;;;;;25.33;3.80;;;6.90;99.90;;;;;;5000275;28;20211;-82
2024/01/23 05:55:03;;;;;;;19.87;3.83;;;6.90;99.90;;;;;;5005210;28;20191;-81
2024/01/23 05:57:29;;;;;;;23.80;3.90;;;6.80;1.00;;;;;;5002456;28;20234;-82
2024/01/23 05:59:55;;;;;;;18.47;5.07;;;6.80;1.00;;;;;;5009169;28;20227;-82
2024/01/23 06:02:20;;;;;;;13.23;3.08;;;6.80;1.00;;;;;;5007433;28;20210;-82
2024/01/23 06:04:46;;;;;;;21.00;5.00;;;6.80;1.00;;;;;;5010900;28;20187;-82
2024/01/23 06:07:12;;;;;;;12.70;3.57;;;6.80;1.00;;;;;;5009987;28;20226;-82
2024/01/23 06:09:37;;;;;;;24.43;3.73;;;6.80;1.00;;;;;;5009854;28;20716;-82
2024/01/23 06:12:03;;;;;;;17.67;3.60;;;6.80;12.40;;;;;;5005775;28;20203;-82
2024/01/23 06:14:29;;;;;;;18.38;3.67;;;6.70;1.00;;;;;;5005231;28;20739;-81
2024/01/23 06:16:54;;;;;;;17.33;2.80;;;6.70;99.90;;;;;;5003509;28;20275;-82
2024/01/23 06:19:20;;;;;;;15.43;3.80;;;6.80;99.90;;;;;;5005248;28;20188;-82
2024/01/23 06:21:46;;;;;;;14.30;3.07;;;6.70;99.90;;;;;;5013382;28;20230;-83
2024/01/23 06:24:11;;;;;;;11.10;3.10;;;6.70;99.90;;;;;;5023796;28;20184;-82
2024/01/23 06:26:37;;;;;;;12.83;3.03;;;6.70;99.90;;;;;;5013072;28;20477;-82
2024/01/23 06:29:03;;;;;;;13.83;3.50;;;6.70;99.90;;;;;;5013749;28;20207;-82
2024/01/23 06:31:29;;;;;;;20.52;3.70;;;6.70;1.00;;;;;;5010786;28;20176;-83
2024/01/23 06:33:56;;;;;;;13.35;2.90;;;6.70;1.00;;;;;;5014909;28;20175;-83
2024/01/23 06:36:21;;;;;;;16.58;3.70;;;6.70;1.00;;;;;;5006954;28;20182;-82
2024/01/23 06:38:47;;;;;;;11.57;3.87;;;6.60;1.00;;;;;;5006983;28;20705;-82
2024/01/23 06:41:12;;;;;;;9.90;3.00;;;6.60;99.90;;;;;;5008601;28;20186;-82
2024/01/23 06:43:38;;;;;;;16.60;3.10;;;6.60;99.90;;;;;;5006453;28;20216;-82
2024/01/23 06:46:03;;;;;;;20.73;3.93;;;6.60;99.90;;;;;;5004334;28;20188;-82
2024/01/23 06:48:31;;;;;;;14.20;2.63;;;6.60;1.00;;;;;;5008032;28;20188;-83
2024/01/23 06:50:56;;;;;;;26.10;3.58;;;6.60;99.90;;;;;;5005497;28;20659;-84
2024/01/23 06:53:22;;;;;;;14.30;4.83;;;6.50;1.00;;;;;;5010973;28;20298;-84
2024/01/23 06:55:48;;;;;;;18.10;3.70;;;6.50;1.00;;;;;;5013658;28;20194;-84
2024/01/23 06:58:13;;;;;;;23.60;4.80;;;6.50;1.00;;;;;;5009505;28;20214;-83
2024/01/23 07:00:39;;;;;;;12.63;3.30;;;6.50;88.90;;;;;;5012095;28;20196;-84
2024/01/23 07:03:06;;;;;;;14.10;3.50;;;6.50;99.90;;;;;;5009699;28;20242;-84
2024/01/23 07:05:32;;;;;;;17.63;4.43;;;6.50;99.90;;;;;;5012039;28;20199;-84
2024/01/23 07:07:57;;;;;;;25.83;4.87;;;6.50;99.90;;;;;;5002180;28;20195;-83
2024/01/23 07:10:23;;;;;;;13.80;3.23;;;6.50;99.90;;;;;;5005263;28;20340;-84
2024/01/23 07:12:48;;;;;;;23.60;3.77;;;6.50;99.90;;;;;;4999980;28;20207;-83
2024/01/23 07:15:14;;;;;;;22.53;4.30;;;6.50;99.90;;;;;;5007647;28;20640;-84
2024/01/23 07:17:39;;;;;;;20.70;3.93;;;6.50;99.90;;;;;;5004947;28;20237;-84
2024/01/23 07:20:09;;;;;;;14.97;4.40;;;6.50;99.90;;;;;;5007358;28;20277;-84
2024/01/23 07:22:34;;;;;;;12.98;2.70;;;6.50;99.90;;;;;;5009157;28;20226;-82
2024/01/23 07:25:03;;;;;;;14.67;3.93;;;6.60;99.90;;;;;;5008254;28;20222;-82
2024/01/23 07:27:28;;;;;;;17.73;3.13;;;6.60;99.90;;;;;;5000793;28;20190;-82
2024/01/23 07:29:53;;;;;;;19.63;4.03;;;6.70;89.90;;;;;;5003007;28;20477;-82
2024/01/23 07:32:19;;;;;;;21.97;4.07;;;6.70;1.00;;;;;;5005284;28;20298;-81
2024/01/23 07:34:48;;;;;;;15.53;3.60;;;6.80;1.00;;;;;;5004053;28;20176;-82
2024/01/23 07:37:13;;;;;;;10.68;3.13;;;6.80;99.90;;;;;;5004409;28;20190;-82
2024/01/23 07:39:39;;;;;;;17.63;3.60;;;6.80;99.90;;;;;;5008581;28;20183;-81
2024/01/23 07:42:05;;;;;;;14.82;3.60;;;6.90;25.60;;;;;;5005246;28;20489;-82
2024/01/23 07:44:33;;;;;;;15.87;4.10;;;6.90;1.00;;;;;;5004286;28;20179;-81
2024/01/23 07:46:59;;;;;;;16.55;4.57;;;7.00;99.90;;;;;;5005500;28;20442;-82
2024/01/23 07:49:24;;;;;;;12.23;2.77;;;7.10;99.90;;;;;;5008060;28;20623;-82
2024/01/23 07:51:51;;;;;;;13.63;4.10;;;7.20;1.00;;;;;;5004633;28;20751;-82
2024/01/23 07:54:17;;;;;;;19.73;3.20;;;7.20;99.90;;;;;;5000710;28;20237;-81
2024/01/23 07:56:43;;;;;;;16.30;3.10;;;7.30;34.50;;;;;;5001747;28;20218;-82
2024/01/23 07:59:09;;;;;;;14.87;2.53;;;7.40;1.00;;;;;;4999077;28;20466;-81
2024/01/23 08:01:34;;;;;;;17.53;3.60;;;7.50;99.90;;;;;;5003678;28;20179;-81
2024/01/23 08:04:00;;;;;;;12.07;3.00;;;7.50;1.00;;;;;;5003781;28;20877;-82
2024/01/23 08:06:25;;;;;;;21.03;4.93;;;7.60;1.00;;;;;;5005824;28;20704;-83
2024/01/23 08:08:51;;;;;;;21.07;3.47;;;7.70;99.90;;;;;;5017142;28;20207;-83
2024/01/23 08:11:17;;;;;;;19.47;4.00;;;7.90;99.90;;;;;;5000801;28;20262;-82
2024/01/23 08:13:43;;;;;;;18.83;3.60;;;8.40;1.00;;;;;;5004932;28;20196;-82
2024/01/23 08:16:09;;;;;;;16.07;3.40;;;9.30;1.00;;;;;;5000130;28;20943;-84
2024/01/23 08:18:36;;;;;;;14.97;3.70;;;10.10;99.90;;;;;;5008263;28;20433;-83
2024/01/23 08:21:02;;;;;;;16.10;3.73;;;10.70;1.00;;;;;;5008368;28;20500;-84
2024/01/23 08:23:28;;;;;;;14.60;3.30;;;11.30;1.00;;;;;;5004495;28;20469;-83
2024/01/23 08:25:54;;;;;;;11.07;3.03;;;11.60;1.00;;;;;;5010577;28;20438;-84
2024/01/23 08:28:19;;;;;;;21.13;4.67;;;11.50;1.00;;;;;;5009201;28;20445;-84
2024/01/23 08:30:45;;;;;;;33.73;5.20;;;11.50;1.00;;;;;;5007528;28;20211;-82
2024/01/23 08:33:17;;;;;;;15.03;4.17;;;11.60;1.00;;;;;;5006525;28;20222;-84
2024/01/23 08:35:42;;;;;;;21.27;4.57;;;12.20;1.00;;;;;;5021872;28;20234;-84
2024/01/23 08:38:09;;;;;;;20.17;3.80;;;12.70;1.00;;;;;;5018512;28;20514;-83
2024/01/23 08:40:34;;;;;;;22.10;4.87;;;13.60;99.90;;;;;;5017241;28;20187;-84
2024/01/23 08:43:00;;;;;;;21.13;4.07;;;14.30;99.90;;;;;;5020037;28;20518;-84
2024/01/23 08:45:25;;;;;;;17.40;4.17;;;14.80;99.90;;;;;;5016866;28;20219;-83
2024/01/23 08:47:51;;;;;;;20.50;4.27;;;15.30;99.90;;;;;;5018490;28;20187;-83
2024/01/23 08:50:16;;;;;;;15.27;3.90;;;15.90;99.90;;;;;;5008040;28;20216;-83
2024/01/23 08:52:45;;;;;;;17.53;4.83;;;16.30;99.90;;;;;;5012686;28;20230;-84
2024/01/23 08:55:10;;;;;;;13.90;4.60;;;16.80;99.90;;;;;;5012802;28;20439;-85
2024/01/23 08:57:36;;;;;;;13.73;4.10;;;17.00;99.90;;;;;;5014635;28;20521;-84
2024/01/23 09:00:02;;;;;;;20.40;5.67;;;17.10;99.90;;;;;;5013911;28;20603;-83
2024/01/23 09:02:28;;;;;;;16.27;4.37;;;17.60;99.90;;;;;;5014731;28;20207;-83
2024/01/23 09:04:54;;;;;;;17.67;4.23;;;18.00;99.90;;;;;;5010112;28;20422;-84
2024/01/23 09:07:22;;;;;;;19.73;4.93;;;18.30;99.90;;;;;;5006278;28;20187;-84
2024/01/23 09:09:50;;;;;;;17.30;4.60;;;18.50;99.90;;;;;;5007878;28;20203;-85
2024/01/23 09:12:21;;;;;;;12.93;4.10;;;18.80;99.90;;;;;;5010034;28;20453;-82
2024/01/23 09:14:46;;;;;;;19.13;4.60;;;19.00;99.90;;;;;;5011397;28;20809;-84
2024/01/23 09:17:12;;;;;;;23.83;4.70;;;19.20;99.90;;;;;;5009092;28;20468;-84
2024/01/23 09:19:38;;;;;;;13.60;4.37;;;19.40;99.90;;;;;;5011795;28;20189;-84
2024/01/23 09:22:06;;;;;;;18.67;4.27;;;19.50;99.90;;;;;;5007509;28;20294;-84
2024/01/23 09:24:32;;;;;;;24.00;4.80;;;19.40;99.90;;;;;;5006627;28;20191;-84
2024/01/23 09:27:01;;;;;;;24.90;4.87;;;19.50;99.90;;;;;;5007780;28;20442;-84
2024/01/23 09:29:30;;;;;;;19.47;4.70;;;19.40;99.90;;;;;;5006917;28;20203;-84
2024/01/23 09:31:56;;;;;;;17.87;4.53;;;19.10;99.90;;;;;;5008161;28;20511;-84
2024/01/23 09:34:21;;;;;;;15.80;4.70;;;18.60;99.90;;;;;;5006655;28;20477;-84
2024/01/23 09:36:47;;;;;;;15.83;4.97;;;17.80;99.90;;;;;;5009992;28;20213;-84
2024/01/23 09:39:15;;;;;;;20.37;5.03;;;17.00;99.90;;;;;;5016362;28;20562;-84
2024/01/23 09:41:48;;;;;;;16.67;4.90;;;16.20;99.90;;;;;;5014521;28;20195;-84
2024/01/23 09:44:14;;;;;;;16.73;4.80;;;15.60;99.90;;;;;;5005785;28;20447;-83
2024/01/23 09:46:42;;;;;;;15.00;4.50;;;15.00;99.90;;;;;;5007322;28;20442;-83
2024/01/23 09:49:08;;;;;;;16.30;3.87;;;14.40;99.90;;;;;;5012049;28;20986;-82
2024/01/23 09:51:35;;;;;;;17.20;4.43;;;14.00;99.90;;;;;;5016542;28;20537;-82
2024/01/23 09:54:00;;;;;;;24.20;4.30;;;13.70;99.90;;;;;;5015241;28;20684;-83
2024/01/23 09:56:27;;;;;;;29.80;5.80;;;13.30;99.90;;;;;;5006883;28;20430;-83
2024/01/23 09:58:53;;;;;;;13.40;3.50;;;13.10;99.90;;;;;;5010651;28;20238;-82
2024/01/23 10:01:19;;;;;;;23.67;4.90;;;13.00;99.90;;;;;;5010297;28;20438;-83
2024/01/23 10:03:48;;;;;;;19.33;5.83;;;12.80;99.90;;;;;;5025909;28;20622;-83
2024/01/23 10:06:14;;;;;;;20.60;4.50;;;12.70;99.90;;;;;;5012295;28;20822;-83
2024/01/23 10:08:40;;;;;;;21.83;5.53;;;12.60;99.90;;;;;;5004901;28;20798;-82
2024/01/23 10:11:05;;;;;;;34.00;4.90;;;12.50;99.90;;;;;;5010412;28;20557;-82
2024/01/23 10:13:31;;;;;;;16.03;3.70;;;12.50;99.90;;;;;;5009977;28;20218;-83
2024/01/23 10:15:57;;;;;;;25.33;5.33;;;12.50;99.90;;;;;;5005925;28;20755;-83
2024/01/23 10:18:26;;;;;;;24.27;3.97;;;12.50;99.90;;;;;;5009729;28;20488;-82
2024/01/23 10:20:52;;;;;;;23.70;7.30;;;12.60;99.90;;;;;;5010266;28;20442;-82
2024/01/23 10:23:18;;;;;;;24.77;4.93;;;12.60;99.90;;;;;;5012096;28;20461;-83
2024/01/23 10:25:44;;;;;;;13.27;4.00;;;12.40;99.90;;;;;;5007564;28;20496;-82
2024/01/23 10:28:10;;;;;;;23.53;4.53;;;12.30;99.90;;;;;;5008659;28;20442;-82
2024/01/23 10:30:39;;;;;;;15.87;5.57;;;12.40;99.90;;;;;;5006335;28;20600;-83
2024/01/23 10:33:10;;;;;;;18.87;4.43;;;12.40;99.90;;;;;;5011219;28;20881;-83
2024/01/23 10:35:36;;;;;;;24.27;4.23;;;12.40;99.90;;;;;;5002524;28;20442;-82
2024/01/23 10:38:03;;;;;;;21.77;4.33;;;12.50;99.90;;;;;;5004839;28;20473;-83
2024/01/23 10:40:29;;;;;;;24.57;4.70;;;12.30;99.90;;;;;;5006401;28;20442;-83
2024/01/23 10:42:58;;;;;;;17.83;4.17;;;12.40;99.90;;;;;;5005960;28;20469;-83
2024/01/23 10:45:24;;;;;;;16.97;4.60;;;12.20;99.90;;;;;;5004377;28;22910;-83
2024/01/23 10:47:52;;;;;;;19.07;4.07;;;12.30;99.90;;;;;;5010080;28;20928;-83
2024/01/23 10:50:20;;;;;;;24.07;5.30;;;12.30;99.90;;;;;;5002171;28;20558;-83
2024/01/23 10:52:46;;;;;;;22.00;5.10;;;12.20;99.90;;;;;;5009645;28;20465;-82
2024/01/23 10:55:12;;;;;;;15.50;3.53;;;12.10;99.90;;;;;;5007081;28;20443;-82
2024/01/23 10:57:39;;;;;;;23.40;4.00;;;12.10;99.90;;;;;;5005897;28;20971;-82
2024/01/23 11:00:06;;;;;;;20.23;4.50;;;12.20;99.90;;;;;;5008990;28;20841;-82
2024/01/23 11:02:47;;;;;;;19.27;4.33;;;12.10;99.90;;;;;;5006646;28;20967;-83
2024/01/23 11:05:13;;;;;;;16.73;3.97;;;12.00;99.90;;;;;;5003326;28;20446;-82
2024/01/23 11:07:56;;;;;;;17.93;4.80;;;12.20;99.90;;;;;;5004426;28;20438;-83
2024/01/23 11:10:28;;;;;;;24.03;5.40;;;12.30;99.90;;;;;;5003812;28;20582;-83
2024/01/23 11:13:08;;;;;;;20.20;4.57;;;12.40;99.90;;;;;;5002702;28;21139;-82
2024/01/23 11:15:34;;;;;;;29.63;4.87;;;12.60;99.90;;;;;;5001843;28;20966;-83
2024/01/23 11:18:31;;;;;;;23.43;4.50;;;12.60;99.90;;;;;;5015389;28;20436;-83
2024/01/23 11:21:05;;;;;;;16.97;4.23;;;12.70;99.90;;;;;;5007456;28;20952;-83
2024/01/23 11:23:39;;;;;;;13.97;4.53;;;12.70;99.90;;;;;;5015516;28;20453;-82
2024/01/23 11:26:15;;;;;;;15.97;4.70;;;12.70;99.90;;;;;;5006256;28;20446;-84
2024/01/23 11:28:46;;;;;;;19.10;4.63;;;12.70;99.90;;;;;;5013934;28;20754;-84
2024/01/23 11:31:20;;;;;;;18.33;4.20;;;12.60;99.90;;;;;;5019285;28;20517;-83
2024/01/23 11:33:46;;;;;;;16.40;5.03;;;12.60;99.90;;;;;;5015386;28;20873;-83
2024/01/23 11:36:23;;;;;;;21.03;4.80;;;12.40;99.90;;;;;;5028515;28;20446;-83
2024/01/23 11:38:49;;;;;;;19.50;4.30;;;12.30;99.90;;;;;;5016399;28;20445;-83
2024/01/23 11:41:24;;;;;;;23.10;4.47;;;12.20;99.90;;;;;;5009930;28;20443;-83
2024/01/23 11:44:16;;;;;;;23.20;4.10;;;12.20;99.90;;;;;;5019966;28;20528;-82
2024/01/23 11:46:43;;;;;;;20.93;6.00;;;12.20;99.90;;;;;;5013518;28;20448;-82
2024/01/23 11:49:10;;;;;;;20.40;4.83;;;12.10;99.90;;;;;;5012851;28;21042;-82
2024/01/23 11:51:37;;;;;;;20.43;4.10;;;12.10;99.90;;;;;;5014341;28;20437;-82
2024/01/23 11:54:09;;;;;;;25.97;5.20;;;12.10;99.90;;;;;;5015059;28;20435;-83
2024/01/23 11:56:36;;;;;;;31.80;5.17;;;12.00;99.90;;;;;;5013301;28;20529;-82
2024/01/23 11:59:02;;;;;;;12.47;3.50;;;12.00;99.90;;;;;;5006015;28;20525;-82
2024/01/23 12:01:30;;;;;;;27.33;5.70;;;12.00;99.90;;;;;;5013447;28;20520;-82
2024/01/23 12:03:56;;;;;;;18.63;4.23;;;12.00;99.90;;;;;;5010805;28;20442;-83
2024/01/23 12:29:19;;;;;;;24.83;5.17;;;11.70;99.90;;;;;;6184202;22;1758655;-89
2024/01/23 12:32:03;;;;;;;22.90;4.90;;;12.00;99.90;;;;;;6246567;23;20180;-88
2024/01/23 12:34:38;;;;;;;20.70;4.90;;;12.00;99.90;;;;;;6249223;23;20402;-88
2024/01/23 12:37:14;;;;;;;32.23;5.20;;;12.00;99.90;;;;;;6175662;22;20535;-87
2024/01/23 12:39:47;;;;;;;24.70;4.50;;;12.00;99.90;;;;;;6130605;23;20379;-87
2024/01/23 12:42:19;;;;;;;20.57;5.47;;;12.10;99.90;;;;;;6127073;23;20395;-89
2024/01/23 12:44:56;;;;;;;23.70;5.03;;;12.10;99.90;;;;;;6130865;23;20438;-87
2024/01/23 12:47:33;;;;;;;24.03;5.70;;;12.10;99.90;;;;;;6130192;23;20414;-85
2024/01/23 12:50:13;;;;;;;30.80;5.20;;;12.10;99.90;;;;;;6130259;23;20387;-87
2024/01/23 12:53:17;;;;;;;20.40;4.70;;;12.10;99.90;;;;;;6131040;23;20912;-85
2024/01/23 12:55:44;;;;;;;18.67;4.43;;;12.10;99.90;;;;;;6130928;23;20402;-86
2024/01/23 12:58:10;;;;;;;30.60;5.67;;;12.20;97.70;;;;;;6130427;23;20926;-87
2024/01/23 13:00:50;;;;;;;22.23;5.20;;;12.10;83.60;;;;;;6130285;23;20384;-86
2024/01/23 13:03:18;;;;;;;20.23;5.07;;;12.10;85.30;;;;;;6130510;23;20406;-87
2024/01/23 13:05:44;;;;;;;23.53;5.60;;;12.00;92.90;;;;;;6130543;23;20419;-88